Time;durP1;ratioP1;P1;durP2;ratioP2;P2;SDS_P1;SDS_P2;PMS_P1;PMS_P2;Temp;Humidity;BMP_temperature;BMP_pressure;BME280_temperature;BME280_humidity;BME280_pressure;Samples;Min_cycle;Max_cycle;Signal;HPM_P1;HPM_P2
2023/04/28 00:00:22;;;;;;;0.30;0.30;;;;;;;10.23;100.00;100166.31;5053518;28;20032;-85
2023/04/28 00:02:51;;;;;;;0.30;0.30;;;;;;;10.27;100.00;100169.47;5053324;28;20059;-87
2023/04/28 00:05:16;;;;;;;0.30;0.30;;;;;;;10.25;100.00;100174.22;5052442;28;20036;-84
2023/04/28 00:07:42;;;;;;;0.30;0.30;;;;;;;10.27;100.00;100169.47;5052374;28;20025;-87
2023/04/28 00:10:08;;;;;;;0.30;0.30;;;;;;;10.28;100.00;100174.69;5052020;28;20037;-85
2023/04/28 00:12:34;;;;;;;0.30;0.30;;;;;;;10.22;100.00;100169.22;5052437;28;20024;-85
2023/04/28 00:15:00;;;;;;;0.30;0.30;;;;;;;10.27;100.00;100174.84;5052249;28;20032;-84
2023/04/28 00:17:31;;;;;;;0.30;0.30;;;;;;;10.25;100.00;100177.72;5035791;28;20036;-84
2023/04/28 00:19:59;;;;;;;0.30;0.30;;;;;;;10.13;100.00;100169.31;5052122;28;20025;-84
2023/04/28 00:22:28;;;;;;;0.30;0.30;;;;;;;10.16;100.00;100172.63;5052824;28;20033;-85
2023/04/28 00:24:55;;;;;;;0.40;0.40;;;;;;;10.25;100.00;100187.63;5047730;28;20033;-83
2023/04/28 00:27:23;;;;;;;0.30;0.30;;;;;;;10.23;100.00;100190.50;5035178;28;20037;-84
2023/04/28 00:29:51;;;;;;;0.40;0.40;;;;;;;10.30;100.00;100191.47;5035239;28;20426;-83
2023/04/28 00:32:28;;;;;;;0.40;0.40;;;;;;;10.29;100.00;100180.88;5052431;28;20029;-84
2023/04/28 00:34:59;;;;;;;0.30;0.30;;;;;;;10.32;100.00;100186.75;5019812;28;20483;-86
2023/04/28 00:37:38;;;;;;;0.38;0.38;;;;;;;10.31;100.00;100184.22;5036439;28;20055;-85
2023/04/28 00:40:04;;;;;;;0.40;0.40;;;;;;;10.31;100.00;100187.75;5019134;28;20394;-86
2023/04/28 00:42:30;;;;;;;0.30;0.30;;;;;;;10.26;100.00;100195.50;5051130;28;20091;-85
2023/04/28 00:44:56;;;;;;;0.40;0.40;;;;;;;10.28;100.00;100198.88;5053197;28;20476;-85
2023/04/28 00:47:22;;;;;;;0.30;0.30;;;;;;;10.29;100.00;100202.38;5035284;28;20040;-85
2023/04/28 00:49:48;;;;;;;0.30;0.30;;;;;;;10.26;100.00;100195.50;5053253;28;20029;-83
2023/04/28 00:52:17;;;;;;;0.30;0.30;;;;;;;10.24;100.00;100200.25;5052021;28;20036;-85
2023/04/28 00:54:46;;;;;;;0.35;0.35;;;;;;;10.13;100.00;100187.28;5051924;28;20454;-84
2023/04/28 00:57:14;;;;;;;0.40;0.40;;;;;;;10.20;100.00;100204.31;5035986;28;20108;-87
2023/04/28 00:59:40;;;;;;;0.30;0.30;;;;;;;10.23;100.00;100205.78;5035310;28;20037;-86
2023/04/28 01:02:07;;;;;;;0.40;0.40;;;;;;;10.24;100.00;100204.75;5053155;28;20027;-85
2023/04/28 01:04:34;;;;;;;0.30;0.30;;;;;;;10.25;100.00;100209.13;5019718;28;20083;-85
2023/04/28 01:07:04;;;;;;;0.40;0.40;;;;;;;10.28;100.00;100209.63;5035465;28;20482;-87
2023/04/28 01:09:30;;;;;;;0.30;0.30;;;;;;;10.24;100.00;100215.50;5037602;28;20475;-84
2023/04/28 01:11:57;;;;;;;0.40;0.40;;;;;;;10.27;100.00;100216.03;5056156;28;20040;-85
2023/04/28 01:14:22;;;;;;;0.30;0.30;;;;;;;10.26;100.00;100214.31;5039331;28;20037;-87
2023/04/28 01:16:50;;;;;;;0.30;0.30;;;;;;;10.26;100.00;100214.31;5055963;28;20037;-86
2023/04/28 01:19:32;;;;;;;0.30;0.30;;;;;;;10.27;100.00;100217.84;5039246;28;20040;-84
2023/04/28 01:21:57;;;;;;;0.40;0.40;;;;;;;10.23;100.00;100209.31;5055933;28;20115;-84
2023/04/28 01:24:35;;;;;;;0.32;0.32;;;;;;;10.29;100.00;100223.88;5055009;28;20037;-85
2023/04/28 01:27:02;;;;;;;0.40;0.40;;;;;;;10.27;100.00;100229.47;5056579;28;20537;-87
2023/04/28 01:29:30;;;;;;;0.30;0.30;;;;;;;10.26;100.00;100233.13;5055593;28;20040;-85
2023/04/28 01:31:56;;;;;;;0.40;0.40;;;;;;;10.16;100.00;100215.63;5053026;28;20037;-86
2023/04/28 01:34:24;;;;;;;0.40;0.40;;;;;;;10.26;100.00;100229.59;5055344;28;20041;-87
2023/04/28 01:36:49;;;;;;;0.30;0.30;;;;;;;10.28;100.00;100231.13;5039156;28;20471;-86
2023/04/28 01:39:16;;;;;;;0.30;0.30;;;;;;;10.29;100.00;100229.25;5037525;28;20115;-85
2023/04/28 01:41:41;;;;;;;0.40;0.40;;;;;;;10.17;100.00;100209.25;5038898;28;20060;-86
2023/04/28 01:44:07;;;;;;;0.30;0.30;;;;;;;10.29;100.00;100226.56;5056117;28;20098;-84
2023/04/28 01:46:33;;;;;;;0.30;0.30;;;;;;;10.26;100.00;100229.59;5056315;28;20060;-87
2023/04/28 01:48:59;;;;;;;0.30;0.30;;;;;;;10.32;100.00;100240.47;5055290;28;20029;-85
2023/04/28 01:51:28;;;;;;;0.40;0.40;;;;;;;10.32;100.00;100239.66;5054449;28;20171;-87
2023/04/28 01:53:54;;;;;;;0.30;0.30;;;;;;;10.32;100.00;100239.66;5054869;28;20110;-85
2023/04/28 01:56:22;;;;;;;0.40;0.40;;;;;;;10.31;100.00;100241.47;5054827;28;20056;-85
2023/04/28 01:58:49;;;;;;;0.30;0.30;;;;;;;10.20;100.00;100214.22;5055779;28;20138;-85
2023/04/28 02:01:15;;;;;;;0.30;0.30;;;;;;;10.31;100.00;100238.78;5054812;28;20088;-87
2023/04/28 02:03:44;;;;;;;0.30;0.30;;;;;;;10.30;100.00;100233.63;5055322;28;20036;-84
2023/04/28 02:06:15;;;;;;;0.30;0.30;;;;;;;10.33;100.00;100235.94;5038946;28;20083;-87
2023/04/28 02:08:45;;;;;;;0.30;0.30;;;;;;;10.29;100.00;100235.47;5056055;28;20029;-85
2023/04/28 02:11:11;;;;;;;0.30;0.30;;;;;;;10.38;100.00;100241.59;5055344;28;20467;-85
2023/04/28 02:13:43;;;;;;;0.40;0.40;;;;;;;10.29;100.00;100231.94;5056031;28;20028;-84
2023/04/28 02:16:14;;;;;;;0.30;0.30;;;;;;;10.33;100.00;100238.63;5054604;28;20040;-85
2023/04/28 02:18:40;;;;;;;0.40;0.40;;;;;;;10.45;100.00;100247.88;5021978;28;20041;-85
2023/04/28 02:21:10;;;;;;;0.30;0.30;;;;;;;10.44;100.00;100248.88;5052994;28;20040;-85
2023/04/28 02:23:43;;;;;;;0.30;0.30;;;;;;;10.46;100.00;100256.78;5054422;28;20506;-85
2023/04/28 02:26:36;;;;;;;0.30;0.30;;;;;;;10.46;100.00;100257.59;5054281;28;20051;-85
2023/04/28 02:29:03;;;;;;;0.40;0.40;;;;;;;10.43;100.00;100247.22;5054365;28;20065;-84
2023/04/28 02:31:30;;;;;;;0.40;0.40;;;;;;;10.47;100.00;100256.56;5053905;28;20037;-85
2023/04/28 02:34:01;;;;;;;0.40;0.40;;;;;;;10.44;100.00;100256.94;5054903;28;20498;-85
2023/04/28 02:36:29;;;;;;;0.40;0.40;;;;;;;10.37;100.00;100247.13;5054212;28;20036;-85
2023/04/28 02:38:55;;;;;;;0.40;0.40;;;;;;;10.38;100.00;100260.41;5037741;28;20021;-85
2023/04/28 02:41:25;;;;;;;0.30;0.30;;;;;;;10.39;100.00;100262.06;5037420;28;20036;-85
2023/04/28 02:43:50;;;;;;;0.30;0.30;;;;;;;10.39;100.00;100266.59;5018363;28;20503;-85
2023/04/28 02:46:18;;;;;;;0.30;0.30;;;;;;;10.32;100.00;100255.78;5053790;28;20029;-85
2023/04/28 02:48:46;;;;;;;0.40;0.40;;;;;;;10.28;100.00;100251.78;5053920;28;20055;-86
2023/04/28 02:51:13;;;;;;;0.40;0.40;;;;;;;10.40;100.00;100273.63;5054782;28;20033;-85
2023/04/28 02:53:38;;;;;;;0.30;0.30;;;;;;;10.47;100.00;100280.75;5055070;28;20029;-85
2023/04/28 02:56:07;;;;;;;0.30;0.30;;;;;;;10.50;100.00;100266.94;5053285;28;20051;-85
2023/04/28 02:58:37;;;;;;;0.30;0.30;;;;;;;10.55;100.00;100277.97;5055072;28;20035;-85
2023/04/28 03:01:05;;;;;;;0.30;0.30;;;;;;;10.54;100.00;100275.50;5020471;28;20483;-85
2023/04/28 03:03:33;;;;;;;0.30;0.30;;;;;;;10.48;100.00;100269.00;5053265;28;20040;-85
2023/04/28 03:05:59;;;;;;;0.30;0.30;;;;;;;10.57;100.00;100288.56;5053529;28;20025;-86
2023/04/28 03:08:25;;;;;;;0.30;0.30;;;;;;;10.50;100.00;100282.25;5053446;28;20032;-84
2023/04/28 03:10:51;;;;;;;0.30;0.30;;;;;;;10.49;100.00;100296.72;5053304;28;20027;-86
2023/04/28 03:13:16;;;;;;;0.40;0.40;;;;;;;10.47;100.00;100279.94;5053595;28;20033;-86
2023/04/28 03:15:47;;;;;;;0.32;0.32;;;;;;;10.54;100.00;100295.13;5054188;28;20463;-86
2023/04/28 03:18:12;;;;;;;0.40;0.40;;;;;;;10.53;100.00;100296.16;5020582;28;20083;-85
2023/04/28 03:20:38;;;;;;;0.40;0.40;;;;;;;10.46;100.00;100276.41;5054341;28;20029;-85
2023/04/28 03:23:03;;;;;;;0.30;0.30;;;;;;;10.49;100.00;100283.28;5054255;28;20029;-85
2023/04/28 03:25:29;;;;;;;0.30;0.30;;;;;;;10.54;100.00;100297.00;5036187;28;20391;-86
2023/04/28 03:27:56;;;;;;;0.50;0.50;;;;;;;10.48;100.00;100278.94;5053049;28;20039;-87
2023/04/28 03:30:23;;;;;;;0.30;0.30;;;;;;;10.55;100.00;100285.22;5052507;28;20032;-84
2023/04/28 03:32:49;;;;;;;0.30;0.30;;;;;;;10.47;100.00;100280.75;5053795;28;20037;-85
2023/04/28 03:35:15;;;;;;;0.30;0.30;;;;;;;10.49;100.00;100281.41;5052871;28;20032;-85
2023/04/28 03:37:43;;;;;;;0.30;0.30;;;;;;;10.54;100.00;100303.19;5036124;28;20060;-86
2023/04/28 03:40:17;;;;;;;0.30;0.30;;;;;;;10.53;100.00;100304.22;5037007;28;20094;-84
2023/04/28 03:42:48;;;;;;;0.30;0.30;;;;;;;10.53;100.00;100306.91;5053784;28;20112;-84
2023/04/28 03:45:19;;;;;;;0.40;0.40;;;;;;;10.50;100.00;100291.13;5052963;28;20033;-86
2023/04/28 03:47:50;;;;;;;0.30;0.30;;;;;;;10.47;100.00;100288.81;5037047;28;20033;-84
2023/04/28 03:50:19;;;;;;;0.38;0.38;;;;;;;10.53;100.00;100300.69;5052453;28;20124;-85
2023/04/28 03:52:47;;;;;;;0.30;0.30;;;;;;;10.47;100.00;100298.75;5053926;28;20111;-85
2023/04/28 03:55:19;;;;;;;0.30;0.30;;;;;;;10.53;100.00;100306.06;5053762;28;20041;-85
2023/04/28 03:57:47;;;;;;;0.30;0.30;;;;;;;10.54;100.00;100307.75;5052902;28;20083;-85
2023/04/28 04:00:14;;;;;;;0.30;0.30;;;;;;;10.54;100.00;100310.44;5053761;28;20483;-84
2023/04/28 04:02:44;;;;;;;0.40;0.40;;;;;;;10.46;100.00;100297.09;5052220;28;20489;-85
2023/04/28 04:05:10;;;;;;;0.30;0.30;;;;;;;10.49;100.00;100302.09;5052722;28;20057;-85
2023/04/28 04:07:35;;;;;;;0.30;0.30;;;;;;;10.49;100.00;100305.59;5051655;28;20439;-85
2023/04/28 04:10:04;;;;;;;0.30;0.30;;;;;;;10.51;100.00;100313.50;5036051;28;20044;-84
2023/04/28 04:12:30;;;;;;;0.30;0.30;;;;;;;10.48;100.00;100316.56;5052389;28;20529;-85
2023/04/28 04:14:56;;;;;;;0.40;0.40;;;;;;;10.48;100.00;100314.72;5052255;28;20512;-85
2023/04/28 04:17:22;;;;;;;0.30;0.30;;;;;;;10.51;100.00;100314.31;5053377;28;20025;-85
2023/04/28 04:19:48;;;;;;;0.40;0.40;;;;;;;10.52;100.00;100321.38;5052088;28;20518;-84
2023/04/28 04:22:13;;;;;;;0.30;0.30;;;;;;;10.46;100.00;100311.38;5051691;28;20032;-85
2023/04/28 04:24:39;;;;;;;0.30;0.30;;;;;;;10.47;100.00;100318.41;5052347;28;20032;-85
2023/04/28 04:27:07;;;;;;;0.38;0.38;;;;;;;10.48;100.00;100316.56;5051673;28;20029;-87
2023/04/28 04:29:33;;;;;;;0.40;0.40;;;;;;;10.51;100.00;100322.41;5052062;28;20029;-85
2023/04/28 04:31:59;;;;;;;0.40;0.40;;;;;;;10.49;100.00;100324.44;5052298;28;20033;-86
2023/04/28 04:34:27;;;;;;;0.30;0.30;;;;;;;10.53;100.00;100327.56;5051861;28;20029;-85
2023/04/28 04:36:52;;;;;;;0.40;0.40;;;;;;;10.51;100.00;100335.00;5053457;28;20036;-85
2023/04/28 04:39:20;;;;;;;0.30;0.30;;;;;;;10.49;100.00;100335.19;5034730;28;20028;-85
2023/04/28 04:41:46;;;;;;;0.40;0.40;;;;;;;10.51;100.00;100341.22;5035168;28;20104;-85
2023/04/28 04:44:11;;;;;;;0.38;0.38;;;;;;;10.40;100.00;100325.56;5053381;28;20032;-84
2023/04/28 04:46:37;;;;;;;0.35;0.35;;;;;;;10.53;100.00;100344.56;5057296;28;20037;-84
2023/04/28 04:49:10;;;;;;;0.30;0.30;;;;;;;10.56;100.00;100348.72;5056280;28;20070;-85
2023/04/28 04:51:36;;;;;;;0.30;0.30;;;;;;;10.55;100.00;100347.88;5056207;28;20039;-85
2023/04/28 04:54:02;;;;;;;0.30;0.30;;;;;;;10.52;100.00;100353.63;5056256;28;20375;-85
2023/04/28 04:56:27;;;;;;;0.40;0.40;;;;;;;10.54;100.00;100359.66;5055569;28;20033;-83
2023/04/28 04:58:56;;;;;;;0.40;0.40;;;;;;;10.55;100.00;100358.63;5056878;28;20029;-86
2023/04/28 05:01:22;;;;;;;0.40;0.40;;;;;;;10.47;100.00;100356.03;5055711;28;20021;-86
2023/04/28 05:03:48;;;;;;;0.40;0.40;;;;;;;10.51;100.00;100362.72;5056860;28;20029;-86
2023/04/28 05:06:14;;;;;;;0.32;0.32;;;;;;;10.56;100.00;100367.53;5039366;28;20421;-85
2023/04/28 05:08:40;;;;;;;0.30;0.30;;;;;;;10.63;100.00;100376.50;5054363;28;20037;-86
2023/04/28 05:11:06;;;;;;;0.40;0.40;;;;;;;10.64;100.00;100371.97;5038681;28;20525;-87
2023/04/28 05:13:31;;;;;;;0.30;0.30;;;;;;;10.61;100.00;100369.66;5055247;28;20036;-85
2023/04/28 05:15:57;;;;;;;0.40;0.40;;;;;;;10.65;100.00;100374.47;5054549;28;20028;-85
2023/04/28 05:18:22;;;;;;;0.38;0.38;;;;;;;10.57;100.00;100364.66;5053657;28;20460;-84
2023/04/28 05:20:54;;;;;;;0.40;0.40;;;;;;;10.64;100.00;100378.19;5054610;28;20036;-84
2023/04/28 05:23:20;;;;;;;0.40;0.40;;;;;;;10.63;100.00;100381.06;5037286;28;20056;-86
2023/04/28 05:25:46;;;;;;;0.30;0.30;;;;;;;10.67;100.00;100395.81;5055211;28;20431;-83
2023/04/28 05:28:20;;;;;;;0.30;0.30;;;;;;;10.65;100.00;100395.16;5040365;28;20055;-86
2023/04/28 05:30:47;;;;;;;0.40;0.40;;;;;;;10.66;100.00;100394.97;5056792;28;20120;-84
2023/04/28 05:33:12;;;;;;;0.30;0.30;;;;;;;10.62;100.00;100387.47;5039018;28;20124;-87
2023/04/28 05:35:39;;;;;;;0.30;0.30;;;;;;;10.70;100.00;100411.56;5056965;28;20075;-83
2023/04/28 05:38:07;;;;;;;0.40;0.40;;;;;;;10.71;100.00;100407.84;5055429;28;20029;-85
2023/04/28 05:40:35;;;;;;;0.38;0.38;;;;;;;10.70;100.00;100415.09;5039247;28;20043;-84
2023/04/28 05:43:01;;;;;;;0.35;0.35;;;;;;;10.71;100.00;100407.84;5022158;28;20471;-85
2023/04/28 05:45:27;;;;;;;0.30;0.30;;;;;;;10.72;100.00;100412.25;5054424;28;20021;-84
2023/04/28 05:47:52;;;;;;;0.30;0.30;;;;;;;10.71;100.00;100421.31;5056414;28;20036;-85
2023/04/28 05:50:18;;;;;;;0.40;0.40;;;;;;;10.70;100.00;100417.78;5055130;28;20376;-85
2023/04/28 05:52:46;;;;;;;0.40;0.40;;;;;;;10.73;100.00;100421.97;5038571;28;20032;-84
2023/04/28 05:55:14;;;;;;;0.40;0.40;;;;;;;10.80;100.00;100414.81;5055028;28;20033;-89
2023/04/28 05:57:40;;;;;;;0.40;0.40;;;;;;;10.85;100.00;100420.50;5056497;28;20103;-87
2023/04/28 06:00:07;;;;;;;0.30;0.30;;;;;;;10.88;100.00;100424.66;5054922;28;20033;-87
2023/04/28 06:02:32;;;;;;;0.40;0.40;;;;;;;10.89;100.00;100427.16;5021933;28;20033;-85
2023/04/28 06:04:58;;;;;;;0.40;0.40;;;;;;;10.91;100.00;100432.34;5038635;28;20135;-85
2023/04/28 06:07:23;;;;;;;0.40;0.40;;;;;;;10.89;100.00;100424.47;5055964;28;20075;-86
2023/04/28 06:09:49;;;;;;;0.30;0.30;;;;;;;10.95;100.00;100433.63;5056225;28;20048;-85
2023/04/28 06:12:15;;;;;;;0.30;0.30;;;;;;;10.98;100.00;100434.13;5055756;28;20025;-85
2023/04/28 06:14:42;;;;;;;0.40;0.40;;;;;;;10.99;100.00;100441.16;5038230;28;20468;-88
2023/04/28 06:17:08;;;;;;;0.40;0.40;;;;;;;11.06;100.00;100446.63;5054520;28;20103;-86
2023/04/28 06:19:34;;;;;;;0.40;0.40;;;;;;;11.04;100.00;100445.97;5054813;28;20523;-87
2023/04/28 06:22:04;;;;;;;0.30;0.30;;;;;;;11.11;100.00;100449.56;5038562;28;20064;-85
2023/04/28 06:24:30;;;;;;;0.40;0.40;;;;;;;11.13;100.00;100446.72;5054650;28;20090;-88
2023/04/28 06:26:56;;;;;;;0.40;0.40;;;;;;;11.21;100.00;100460.88;5038216;28;20039;-84
2023/04/28 06:29:26;;;;;;;0.40;0.40;;;;;;;11.22;100.00;100456.38;5038034;28;20387;-86
2023/04/28 06:31:56;;;;;;;0.40;0.40;;;;;;;11.31;100.00;100459.78;5054484;28;20040;-86
2023/04/28 06:34:26;;;;;;;0.30;0.30;;;;;;;11.26;100.00;100446.06;5054341;28;20025;-88
2023/04/28 06:36:52;;;;;;;0.40;0.40;;;;;;;11.51;100.00;100468.09;5021381;28;20465;-88
2023/04/28 06:39:17;;;;;;;0.40;0.40;;;;;;;11.57;100.00;100468.19;5055171;28;20112;-85
2023/04/28 06:41:46;;;;;;;0.40;0.40;;;;;;;11.69;100.00;100473.88;5038113;28;20032;-85
2023/04/28 06:44:14;;;;;;;0.40;0.40;;;;;;;11.75;100.00;100480.38;5054082;28;20036;-87
2023/04/28 06:46:39;;;;;;;0.40;0.40;;;;;;;11.78;100.00;100486.22;5054087;28;20037;-86
2023/04/28 06:49:05;;;;;;;0.30;0.30;;;;;;;11.81;100.00;100480.47;5037439;28;20035;-87
2023/04/28 06:51:34;;;;;;;0.40;0.40;;;;;;;11.99;100.00;100493.53;5055614;28;20047;-86
2023/04/28 06:54:00;;;;;;;0.40;0.40;;;;;;;12.06;100.00;100496.28;5054162;28;20040;-88
2023/04/28 06:56:29;;;;;;;0.30;0.30;;;;;;;12.09;100.00;100510.22;5053590;28;20136;-86
2023/04/28 06:58:57;;;;;;;0.30;0.30;;;;;;;12.02;100.00;100513.88;5055186;28;20032;-87
2023/04/28 07:01:24;;;;;;;0.40;0.40;;;;;;;11.92;100.00;100510.66;5021279;28;20037;-88
2023/04/28 07:03:52;;;;;;;0.40;0.40;;;;;;;11.91;100.00;100506.28;5053786;28;20087;-88
2023/04/28 07:06:17;;;;;;;0.40;0.40;;;;;;;11.97;100.00;100513.63;5053176;28;20036;-87
2023/04/28 07:08:43;;;;;;;0.40;0.40;;;;;;;11.94;100.00;100516.69;5053699;28;20025;-85
2023/04/28 07:11:08;;;;;;;0.40;0.40;;;;;;;11.87;100.00;100506.66;5053505;28;20104;-87
2023/04/28 07:13:34;;;;;;;0.32;0.32;;;;;;;11.94;100.00;100520.22;5053600;28;20029;-86
2023/04/28 07:16:00;;;;;;;0.40;0.40;;;;;;;11.88;100.00;100529.03;5054512;28;20391;-88
2023/04/28 07:18:25;;;;;;;0.30;0.30;;;;;;;11.92;100.00;100524.97;5053526;28;20043;-86
2023/04/28 07:20:54;;;;;;;0.40;0.40;;;;;;;12.09;100.00;100533.63;5054245;28;20061;-85
2023/04/28 07:23:19;;;;;;;0.30;0.30;;;;;;;12.23;100.00;100540.84;5054274;28;20054;-85
2023/04/28 07:25:45;;;;;;;0.40;0.40;;;;;;;12.38;100.00;100538.06;5053328;28;20126;-86
2023/04/28 07:28:13;;;;;;;0.40;0.40;;;;;;;12.61;100.00;100535.16;5054146;28;20036;-85
2023/04/28 07:30:39;;;;;;;0.40;0.40;;;;;;;12.76;100.00;100552.09;5036398;28;20048;-87
2023/04/28 07:33:04;;;;;;;0.40;0.40;;;;;;;12.74;100.00;100537.16;5052887;28;20498;-86
2023/04/28 07:35:31;;;;;;;0.40;0.40;;;;;;;12.82;100.00;100549.66;5036329;28;20076;-87
2023/04/28 07:37:56;;;;;;;0.40;0.40;;;;;;;12.88;100.00;100565.88;5053262;28;20040;-87
2023/04/28 07:40:23;;;;;;;0.40;0.40;;;;;;;12.82;100.00;100555.06;5036471;28;20028;-85
2023/04/28 07:42:51;;;;;;;0.40;0.40;;;;;;;12.72;100.00;100555.38;5052638;28;20032;-86
2023/04/28 07:45:22;;;;;;;0.40;0.40;;;;;;;12.54;100.00;100547.75;5020950;28;20044;-86
2023/04/28 07:47:48;;;;;;;0.40;0.40;;;;;;;12.47;100.00;100569.28;5053743;28;20035;-85
2023/04/28 07:50:15;;;;;;;0.30;0.30;;;;;;;12.36;100.00;100568.94;5054083;28;20391;-87
2023/04/28 07:52:42;;;;;;;0.30;0.30;;;;;;;12.23;100.00;100561.56;5052980;28;20037;-86
2023/04/28 07:55:10;;;;;;;0.40;0.40;;;;;;;12.35;100.00;100580.75;5052809;28;20032;-87
2023/04/28 07:57:36;;;;;;;0.40;0.40;;;;;;;12.54;100.00;100582.81;5054130;28;20076;-87
2023/04/28 08:00:02;;;;;;;0.40;0.40;;;;;;;12.86;100.00;100584.16;5035632;28;20573;-86
2023/04/28 08:02:28;;;;;;;0.40;0.40;;;;;;;13.14;100.00;100583.31;5019695;28;20494;-84
2023/04/28 08:04:54;;;;;;;0.40;0.40;;;;;;;13.33;100.00;100592.63;5052518;28;20029;-86
2023/04/28 08:07:23;;;;;;;0.40;0.40;;;;;;;13.39;100.00;100589.97;5052333;28;20031;-86
2023/04/28 08:09:54;;;;;;;0.40;0.40;;;;;;;13.49;100.00;100595.00;5052700;28;20044;-86
2023/04/28 08:12:20;;;;;;;0.40;0.40;;;;;;;13.35;100.00;100604.88;5035181;28;20102;-84
2023/04/28 08:14:47;;;;;;;0.40;0.40;;;;;;;13.31;100.00;100605.47;5051871;28;20083;-84
2023/04/28 08:17:13;;;;;;;0.40;0.40;;;;;;;13.54;100.00;100607.91;5052227;28;20115;-84
2023/04/28 08:19:39;;;;;;;0.50;0.50;;;;;;;13.61;100.00;100601.50;5035717;28;20458;-84
2023/04/28 08:22:06;;;;;;;0.40;0.40;;;;;;;13.63;100.00;100607.56;5019273;28;20037;-84
2023/04/28 08:24:35;;;;;;;0.40;0.40;;;;;;;13.62;100.00;100607.75;5035549;28;20028;-83
2023/04/28 08:27:04;;;;;;;0.40;0.40;;;;;;;13.62;100.00;100622.09;5052343;28;20033;-84
2023/04/28 08:29:31;;;;;;;0.40;0.40;;;;;;;13.72;100.00;100620.91;5051862;28;20033;-83
2023/04/28 08:32:01;;;;;;;0.30;0.30;;;;;;;13.84;100.00;100616.59;5052192;28;20112;-83
2023/04/28 08:34:28;;;;;;;0.40;0.40;;;;;;;14.10;100.00;100625.84;5052442;28;20041;-85
2023/04/28 08:36:53;;;;;;;0.40;0.40;;;;;;;14.41;100.00;100622.63;5019504;28;20029;-85
2023/04/28 08:39:21;;;;;;;0.40;0.40;;;;;;;14.75;100.00;100632.50;5052116;28;20029;-81
2023/04/28 08:41:47;;;;;;;0.30;0.30;;;;;;;14.92;100.00;100638.34;5051384;28;20032;-82
2023/04/28 08:44:13;;;;;;;0.40;0.40;;;;;;;15.03;100.00;100634.16;5034841;28;20083;-88
2023/04/28 08:46:40;;;;;;;0.35;0.35;;;;;;;15.18;100.00;100632.09;5051385;28;20426;-86
2023/04/28 08:49:13;;;;;;;0.40;0.40;;;;;;;15.22;100.00;100638.78;5052039;28;20100;-85
2023/04/28 08:52:04;;;;;;;0.40;0.40;;;;;;;15.12;100.00;100641.91;5019054;28;20033;-84
2023/04/28 08:54:36;;;;;;;0.43;0.43;;;;;;;15.14;100.00;100637.09;5034895;28;20068;-88
2023/04/28 08:57:04;;;;;;;0.40;0.40;;;;;;;15.26;100.00;100647.31;5019423;28;20033;-88
2023/04/28 08:59:30;;;;;;;0.50;0.50;;;;;;;15.42;100.00;100649.56;5052165;28;20025;-87
2023/04/28 09:01:55;;;;;;;0.82;0.82;;;;;;;15.36;100.00;100637.72;5051683;28;20116;-87
2023/04/28 09:04:21;;;;;;;0.40;0.40;;;;;;;15.31;100.00;100655.63;5051963;28;20112;-87
2023/04/28 09:06:47;;;;;;;0.40;0.40;;;;;;;15.04;100.00;100649.41;5052199;28;20033;-88
2023/04/28 09:09:26;;;;;;;0.40;0.40;;;;;;;14.70;100.00;100662.06;5051993;28;20486;-87
2023/04/28 09:12:03;;;;;;;0.40;0.40;;;;;;;14.25;100.00;100662.50;5019464;28;20471;-87
2023/04/28 09:14:34;;;;;;;0.57;0.57;;;;;;;13.94;100.00;100667.56;5035568;28;20037;-88
2023/04/28 09:17:08;;;;;;;0.32;0.32;;;;;;;13.67;100.00;100661.19;5035714;28;20049;-89
2023/04/28 09:19:35;;;;;;;0.40;0.40;;;;;;;13.51;100.00;100668.56;5035766;28;20077;-87
2023/04/28 09:22:02;;;;;;;0.35;0.35;;;;;;;13.53;100.00;100671.09;5035114;28;20029;-86
2023/04/28 09:24:42;;;;;;;2.90;0.93;;;;;;;13.69;100.00;100672.63;5035440;28;20037;-86
2023/04/28 09:27:14;;;;;;;1.23;0.60;;;;;;;13.47;100.00;100637.59;5036057;28;20471;-86
2023/04/28 09:29:51;;;;;;;0.77;0.73;;;;;;;13.78;100.00;100676.84;5020290;28;20037;-86
2023/04/28 09:32:20;;;;;;;0.50;0.50;;;;;;;13.98;100.00;100675.09;5022688;28;20471;-88
2023/04/28 09:34:49;;;;;;;0.68;0.68;;;;;;;14.24;100.00;100668.97;5022666;28;20033;-85
2023/04/28 09:37:19;;;;;;;0.40;0.40;;;;;;;14.64;100.00;100684.53;5055698;28;20029;-85
2023/04/28 09:39:46;;;;;;;0.40;0.40;;;;;;;14.79;100.00;100673.50;5038877;28;20033;-85
2023/04/28 09:42:35;;;;;;;0.40;0.40;;;;;;;15.17;100.00;100680.03;5023364;28;20059;-86
2023/04/28 09:45:04;;;;;;;0.40;0.40;;;;;;;15.74;100.00;100685.00;5022484;28;20029;-86
2023/04/28 09:47:34;;;;;;;1.75;1.65;;;;;;;16.19;100.00;100675.06;5038848;28;20060;-85
2023/04/28 09:50:05;;;;;;;0.40;0.40;;;;;;;16.36;100.00;100677.31;5038771;28;20029;-87
2023/04/28 09:52:33;;;;;;;0.40;0.40;;;;;;;16.18;100.00;100691.56;5022347;28;20047;-85
2023/04/28 09:55:01;;;;;;;0.75;0.65;;;;;;;15.68;100.00;100691.25;5055065;28;20025;-85
2023/04/28 09:57:29;;;;;;;0.50;0.50;;;;;;;15.13;100.00;100680.63;5038704;28;20122;-84
2023/04/28 09:59:56;;;;;;;0.47;0.47;;;;;;;14.85;100.00;100681.66;5056631;28;20043;-87
2023/04/28 10:02:23;;;;;;;0.50;0.50;;;;;;;14.94;100.00;100688.53;5038467;28;20110;-84
2023/04/28 10:04:52;;;;;;;3.40;3.30;;;;;;;15.51;100.00;100702.53;5054068;28;20037;-87
2023/04/28 10:07:19;;;;;;;1.00;0.90;;;;;;;16.58;100.00;100702.25;5037991;28;20486;-87
2023/04/28 10:09:49;;;;;;;2.85;2.75;;;;;;;17.16;100.00;100701.28;5054125;28;20024;-85
2023/04/28 10:12:22;;;;;;;0.50;0.50;;;;;;;16.76;100.00;100707.78;5036339;28;20470;-82
2023/04/28 10:14:49;;;;;;;0.50;0.50;;;;;;;16.17;100.00;100706.19;5005779;28;20091;-83
2023/04/28 10:17:16;;;;;;;0.40;0.40;;;;;;;15.89;100.00;100710.00;5054052;28;20104;-82
2023/04/28 10:19:46;;;;;;;0.50;0.50;;;;;;;16.38;100.00;100707.75;5005520;28;20068;-86
2023/04/28 10:22:24;;;;;;;0.60;0.60;;;;;;;17.31;100.00;100707.22;5054293;28;20483;-82
2023/04/28 10:25:11;;;;;;;0.60;0.60;;;;;;;17.58;100.00;100713.25;5038063;28;20036;-83
2023/04/28 10:27:46;;;;;;;0.85;0.85;;;;;;;17.30;100.00;100721.84;5052595;28;20158;-85
2023/04/28 10:30:20;;;;;;;0.43;0.43;;;;;;;16.75;100.00;100721.56;5030995;28;20527;-88
2023/04/28 10:32:46;;;;;;;0.60;0.60;;;;;;;16.16;100.00;100708.03;5037111;28;20037;-83
2023/04/28 10:35:27;;;;;;;1.10;0.60;;;;;;;16.05;100.00;100731.22;5020534;28;20067;-84
2023/04/28 10:38:02;;;;;;;0.45;0.40;;;;;;;15.97;100.00;100734.19;5052083;28;20029;-83
2023/04/28 10:40:37;;;;;;;0.50;0.50;;;;;;;15.71;100.00;100737.75;5052938;28;20045;-82
2023/04/28 10:43:04;;;;;;;0.50;0.50;;;;;;;16.07;100.00;100743.75;5037045;28;20048;-84
2023/04/28 10:45:50;;;;;;;0.80;0.80;;;;;;;16.04;100.00;100731.47;5054206;28;20033;-80
2023/04/28 10:48:15;;;;;;;0.50;0.50;;;;;;;15.78;100.00;100741.31;5054340;28;20033;-88
2023/04/28 10:51:08;;;;;;;0.88;0.70;;;;;;;15.56;100.00;100748.81;5037259;28;20132;-83
2023/04/28 10:53:47;;;;;;;4.68;0.70;;;;;;;15.51;100.00;100745.06;5037315;28;20033;-85
2023/04/28 10:56:20;;;;;;;0.50;0.50;;;;;;;15.75;100.00;100746.31;5037512;28;20045;-81
2023/04/28 10:58:50;;;;;;;0.50;0.50;;;;;;;16.03;100.00;100746.88;5053730;28;20063;-82
2023/04/28 11:01:24;;;;;;;0.60;0.60;;;;;;;16.17;100.00;100731.44;5054160;28;20056;-82
2023/04/28 11:06:34;;;;;;;0.50;0.50;;;;;;;16.45;100.00;100741.94;5037714;28;20052;-80
2023/04/28 11:09:11;;;;;;;0.60;0.60;;;;;;;16.66;100.00;100759.81;5054603;28;20048;-80
2023/04/28 11:11:38;;;;;;;0.68;0.68;;;;;;;16.76;100.00;100753.94;5053905;28;20029;-84
2023/04/28 11:14:16;;;;;;;0.75;0.65;;;;;;;16.65;100.00;100766.31;5037275;28;20033;-80
2023/04/28 11:16:53;;;;;;;0.45;0.45;;;;;;;16.44;100.00;100756.59;5053597;28;20391;-81
2023/04/28 11:19:23;;;;;;;0.50;0.50;;;;;;;16.52;100.00;100758.22;5037295;28;20371;-83
2023/04/28 11:21:49;;;;;;;6.05;3.63;;;;;;;16.92;100.00;100764.31;5037154;28;20079;-85
2023/04/28 11:24:16;;;;;;;1.58;1.15;;;;;;;17.71;100.00;100769.41;5020270;28;20068;-82